sensor_id;sensor_type;location;lat;lon;timestamp;temperature;humidity
20957;DHT22;10637;47.970;7.830;2023-10-09T00:00:15;16.10;99.90
20957;DHT22;10637;47.970;7.830;2023-10-09T00:05:36;15.90;99.90
20957;DHT22;10637;47.970;7.830;2023-10-09T00:10:48;15.80;99.90
20957;DHT22;10637;47.970;7.830;2023-10-09T00:15:56;16.00;99.90
20957;DHT22;10637;47.970;7.830;2023-10-09T00:21:01;15.70;99.90
20957;DHT22;10637;47.970;7.830;2023-10-09T00:26:13;15.60;99.90
20957;DHT22;10637;47.970;7.830;2023-10-09T00:31:18;16.00;99.90
20957;DHT22;10637;47.970;7.830;2023-10-09T00:36:35;16.30;99.90
20957;DHT22;10637;47.970;7.830;2023-10-09T00:41:52;15.90;99.90
20957;DHT22;10637;47.970;7.830;2023-10-09T00:46:56;15.80;99.90
20957;DHT22;10637;47.970;7.830;2023-10-09T00:52:09;15.70;99.90
20957;DHT22;10637;47.970;7.830;2023-10-09T00:57:19;16.00;99.90
20957;DHT22;10637;47.970;7.830;2023-10-09T01:02:27;16.20;99.90
20957;DHT22;10637;47.970;7.830;2023-10-09T01:07:43;16.00;99.90
20957;DHT22;10637;47.970;7.830;2023-10-09T01:12:46;15.60;99.90
20957;DHT22;10637;47.970;7.830;2023-10-09T01:17:56;15.60;99.90
20957;DHT22;10637;47.970;7.830;2023-10-09T01:23:01;15.70;99.90
20957;DHT22;10637;47.970;7.830;2023-10-09T01:28:03;15.90;99.90
20957;DHT22;10637;47.970;7.830;2023-10-09T01:33:05;15.70;99.90
20957;DHT22;10637;47.970;7.830;2023-10-09T01:38:15;15.40;99.90
20957;DHT22;10637;47.970;7.830;2023-10-09T01:43:17;15.30;99.90
20957;DHT22;10637;47.970;7.830;2023-10-09T01:48:20;15.20;99.90
20957;DHT22;10637;47.970;7.830;2023-10-09T01:53:26;15.40;99.90
20957;DHT22;10637;47.970;7.830;2023-10-09T01:58:32;15.30;99.90
20957;DHT22;10637;47.970;7.830;2023-10-09T02:03:35;15.20;99.90
20957;DHT22;10637;47.970;7.830;2023-10-09T02:08:39;15.10;99.90
20957;DHT22;10637;47.970;7.830;2023-10-09T02:13:44;15.10;99.90
20957;DHT22;10637;47.970;7.830;2023-10-09T02:18:47;15.00;99.90
20957;DHT22;10637;47.970;7.830;2023-10-09T02:23:55;14.80;99.90
20957;DHT22;10637;47.970;7.830;2023-10-09T02:28:58;15.20;99.90
20957;DHT22;10637;47.970;7.830;2023-10-09T02:34:02;15.10;99.90
20957;DHT22;10637;47.970;7.830;2023-10-09T02:39:06;15.00;99.90
20957;DHT22;10637;47.970;7.830;2023-10-09T02:44:14;15.00;99.90
20957;DHT22;10637;47.970;7.830;2023-10-09T02:49:17;15.10;99.90
20957;DHT22;10637;47.970;7.830;2023-10-09T02:54:19;15.10;99.90
20957;DHT22;10637;47.970;7.830;2023-10-09T02:59:24;14.90;99.90
20957;DHT22;10637;47.970;7.830;2023-10-09T03:04:26;14.90;99.90
20957;DHT22;10637;47.970;7.830;2023-10-09T03:09:32;14.70;99.90
20957;DHT22;10637;47.970;7.830;2023-10-09T03:14:37;14.50;99.90
20957;DHT22;10637;47.970;7.830;2023-10-09T03:19:43;14.90;99.90
20957;DHT22;10637;47.970;7.830;2023-10-09T03:24:45;14.90;99.90
20957;DHT22;10637;47.970;7.830;2023-10-09T03:29:53;14.80;99.90
20957;DHT22;10637;47.970;7.830;2023-10-09T03:34:55;14.70;99.90
20957;DHT22;10637;47.970;7.830;2023-10-09T03:39:57;14.60;99.90
20957;DHT22;10637;47.970;7.830;2023-10-09T03:44:59;14.60;99.90
20957;DHT22;10637;47.970;7.830;2023-10-09T03:50:01;14.60;99.90
20957;DHT22;10637;47.970;7.830;2023-10-09T03:55:09;14.50;99.90
20957;DHT22;10637;47.970;7.830;2023-10-09T04:00:16;14.50;99.90
20957;DHT22;10637;47.970;7.830;2023-10-09T04:05:25;14.70;99.90
20957;DHT22;10637;47.970;7.830;2023-10-09T04:10:27;14.70;99.90
20957;DHT22;10637;47.970;7.830;2023-10-09T04:15:45;14.40;99.90
20957;DHT22;10637;47.970;7.830;2023-10-09T04:20:47;14.50;99.90
20957;DHT22;10637;47.970;7.830;2023-10-09T04:26:09;14.60;99.90
20957;DHT22;10637;47.970;7.830;2023-10-09T04:31:15;14.70;99.90
20957;DHT22;10637;47.970;7.830;2023-10-09T04:36:19;14.60;99.90
20957;DHT22;10637;47.970;7.830;2023-10-09T04:41:24;15.00;99.90
20957;DHT22;10637;47.970;7.830;2023-10-09T04:46:30;15.30;99.90
20957;DHT22;10637;47.970;7.830;2023-10-09T04:51:45;15.30;99.90
20957;DHT22;10637;47.970;7.830;2023-10-09T04:57:04;15.40;99.90
20957;DHT22;10637;47.970;7.830;2023-10-09T05:02:06;15.30;99.90
20957;DHT22;10637;47.970;7.830;2023-10-09T05:07:20;15.00;99.90
20957;DHT22;10637;47.970;7.830;2023-10-09T05:12:24;14.70;99.90
20957;DHT22;10637;47.970;7.830;2023-10-09T05:17:30;15.00;99.90
20957;DHT22;10637;47.970;7.830;2023-10-09T05:22:36;15.10;99.90
20957;DHT22;10637;47.970;7.830;2023-10-09T05:27:38;15.10;99.90
20957;DHT22;10637;47.970;7.830;2023-10-09T05:32:56;15.50;99.90
20957;DHT22;10637;47.970;7.830;2023-10-09T05:38:00;15.40;99.90
20957;DHT22;10637;47.970;7.830;2023-10-09T05:43:16;15.60;99.90
20957;DHT22;10637;47.970;7.830;2023-10-09T05:48:38;15.60;99.90
20957;DHT22;10637;47.970;7.830;2023-10-09T05:53:40;15.40;99.90
20957;DHT22;10637;47.970;7.830;2023-10-09T05:58:47;15.40;99.90
20957;DHT22;10637;47.970;7.830;2023-10-09T06:04:07;15.20;99.90
20957;DHT22;10637;47.970;7.830;2023-10-09T06:09:17;15.20;99.90
20957;DHT22;10637;47.970;7.830;2023-10-09T06:14:21;15.30;99.90
20957;DHT22;10637;47.970;7.830;2023-10-09T06:19:32;15.60;99.90
20957;DHT22;10637;47.970;7.830;2023-10-09T06:24:45;15.80;99.90
20957;DHT22;10637;47.970;7.830;2023-10-09T06:29:57;15.80;99.90
20957;DHT22;10637;47.970;7.830;2023-10-09T06:35:14;15.50;99.90
20957;DHT22;10637;47.970;7.830;2023-10-09T06:40:20;15.30;99.90
20957;DHT22;10637;47.970;7.830;2023-10-09T06:45:44;15.40;99.90
20957;DHT22;10637;47.970;7.830;2023-10-09T06:50:47;15.70;99.90
20957;DHT22;10637;47.970;7.830;2023-10-09T06:55:59;16.10;99.90
20957;DHT22;10637;47.970;7.830;2023-10-09T07:01:08;16.20;99.90
20957;DHT22;10637;47.970;7.830;2023-10-09T07:06:30;16.20;99.90
20957;DHT22;10637;47.970;7.830;2023-10-09T07:11:43;16.10;99.90
20957;DHT22;10637;47.970;7.830;2023-10-09T07:16:45;16.10;99.90
20957;DHT22;10637;47.970;7.830;2023-10-09T07:22:03;16.30;99.90
20957;DHT22;10637;47.970;7.830;2023-10-09T07:27:05;16.50;99.90
20957;DHT22;10637;47.970;7.830;2023-10-09T07:32:11;16.70;99.90
20957;DHT22;10637;47.970;7.830;2023-10-09T07:37:22;17.20;99.90
20957;DHT22;10637;47.970;7.830;2023-10-09T07:42:25;17.50;99.90
20957;DHT22;10637;47.970;7.830;2023-10-09T07:47:42;17.70;99.90
20957;DHT22;10637;47.970;7.830;2023-10-09T07:53:05;18.20;99.90
20957;DHT22;10637;47.970;7.830;2023-10-09T07:58:25;18.70;99.90
20957;DHT22;10637;47.970;7.830;2023-10-09T08:03:27;18.60;99.90
20957;DHT22;10637;47.970;7.830;2023-10-09T08:08:35;18.70;99.90
20957;DHT22;10637;47.970;7.830;2023-10-09T08:13:57;19.10;99.90
20957;DHT22;10637;47.970;7.830;2023-10-09T08:19:04;20.00;99.90
20957;DHT22;10637;47.970;7.830;2023-10-09T08:24:41;20.40;99.90
20957;DHT22;10637;47.970;7.830;2023-10-09T08:29:43;20.60;99.90
20957;DHT22;10637;47.970;7.830;2023-10-09T08:34:49;20.90;99.90
20957;DHT22;10637;47.970;7.830;2023-10-09T08:39:58;20.80;99.90
20957;DHT22;10637;47.970;7.830;2023-10-09T08:45:02;20.80;99.90
20957;DHT22;10637;47.970;7.830;2023-10-09T08:50:07;20.60;99.90
20957;DHT22;10637;47.970;7.830;2023-10-09T08:55:15;20.70;99.90
20957;DHT22;10637;47.970;7.830;2023-10-09T09:00:19;21.40;99.90
20957;DHT22;10637;47.970;7.830;2023-10-09T09:05:25;22.50;99.90
20957;DHT22;10637;47.970;7.830;2023-10-09T09:10:30;23.70;99.90
20957;DHT22;10637;47.970;7.830;2023-10-09T09:15:40;24.70;99.90
20957;DHT22;10637;47.970;7.830;2023-10-09T09:20:42;25.80;99.90
20957;DHT22;10637;47.970;7.830;2023-10-09T09:25:48;26.90;99.90
20957;DHT22;10637;47.970;7.830;2023-10-09T09:31:10;26.50;99.90
20957;DHT22;10637;47.970;7.830;2023-10-09T09:36:15;26.80;99.90
20957;DHT22;10637;47.970;7.830;2023-10-09T09:41:17;26.80;99.90
20957;DHT22;10637;47.970;7.830;2023-10-09T09:46:33;27.50;99.90
20957;DHT22;10637;47.970;7.830;2023-10-09T09:51:36;28.80;98.30
20957;DHT22;10637;47.970;7.830;2023-10-09T09:56:40;28.80;97.00
20957;DHT22;10637;47.970;7.830;2023-10-09T10:01:42;30.70;94.10
20957;DHT22;10637;47.970;7.830;2023-10-09T10:06:47;31.00;93.00
20957;DHT22;10637;47.970;7.830;2023-10-09T10:11:50;30.50;92.50
20957;DHT22;10637;47.970;7.830;2023-10-09T10:22:24;29.60;94.70
20957;DHT22;10637;47.970;7.830;2023-10-09T10:27:29;29.10;95.90
20957;DHT22;10637;47.970;7.830;2023-10-09T10:32:53;29.00;95.50
20957;DHT22;10637;47.970;7.830;2023-10-09T10:37:55;29.80;94.30
20957;DHT22;10637;47.970;7.830;2023-10-09T10:43:18;30.50;93.20
20957;DHT22;10637;47.970;7.830;2023-10-09T10:48:38;31.70;91.50
20957;DHT22;10637;47.970;7.830;2023-10-09T10:53:53;32.10;88.80
20957;DHT22;10637;47.970;7.830;2023-10-09T10:59:01;31.30;88.60
20957;DHT22;10637;47.970;7.830;2023-10-09T11:04:12;30.20;87.30
20957;DHT22;10637;47.970;7.830;2023-10-09T11:09:15;30.80;88.50
20957;DHT22;10637;47.970;7.830;2023-10-09T11:14:23;31.70;84.10
20957;DHT22;10637;47.970;7.830;2023-10-09T11:19:26;32.20;85.10
20957;DHT22;10637;47.970;7.830;2023-10-09T11:24:29;32.40;83.80
20957;DHT22;10637;47.970;7.830;2023-10-09T11:29:48;32.80;82.40
20957;DHT22;10637;47.970;7.830;2023-10-09T11:35:15;33.60;81.00
20957;DHT22;10637;47.970;7.830;2023-10-09T11:40:30;33.40;79.10
20957;DHT22;10637;47.970;7.830;2023-10-09T11:45:44;31.80;80.70
20957;DHT22;10637;47.970;7.830;2023-10-09T11:50:58;31.50;81.20
20957;DHT22;10637;47.970;7.830;2023-10-09T11:56:06;30.50;83.80
20957;DHT22;10637;47.970;7.830;2023-10-09T12:01:12;29.70;84.70
20957;DHT22;10637;47.970;7.830;2023-10-09T12:06:24;29.50;86.30
20957;DHT22;10637;47.970;7.830;2023-10-09T12:11:33;29.10;87.70
20957;DHT22;10637;47.970;7.830;2023-10-09T12:16:36;29.00;88.60
20957;DHT22;10637;47.970;7.830;2023-10-09T12:21:41;29.00;89.30
20957;DHT22;10637;47.970;7.830;2023-10-09T12:26:44;28.60;90.10
20957;DHT22;10637;47.970;7.830;2023-10-09T12:31:47;28.30;89.80
20957;DHT22;10637;47.970;7.830;2023-10-09T12:36:49;27.50;91.20
20957;DHT22;10637;47.970;7.830;2023-10-09T12:41:51;27.30;91.60
20957;DHT22;10637;47.970;7.830;2023-10-09T12:46:55;27.30;92.00
20957;DHT22;10637;47.970;7.830;2023-10-09T12:51:58;27.40;92.30
20957;DHT22;10637;47.970;7.830;2023-10-09T12:57:00;27.50;92.30
20957;DHT22;10637;47.970;7.830;2023-10-09T13:02:02;28.10;92.30
20957;DHT22;10637;47.970;7.830;2023-10-09T13:07:07;28.20;91.50
20957;DHT22;10637;47.970;7.830;2023-10-09T13:12:09;27.90;92.30
20957;DHT22;10637;47.970;7.830;2023-10-09T13:17:19;28.30;91.80
20957;DHT22;10637;47.970;7.830;2023-10-09T13:22:23;29.00;91.20
20957;DHT22;10637;47.970;7.830;2023-10-09T13:27:26;29.40;90.90
20957;DHT22;10637;47.970;7.830;2023-10-09T13:32:33;30.50;90.20
20957;DHT22;10637;47.970;7.830;2023-10-09T13:37:37;31.00;89.00
20957;DHT22;10637;47.970;7.830;2023-10-09T13:42:39;31.80;86.80
20957;DHT22;10637;47.970;7.830;2023-10-09T13:47:41;31.70;86.60
20957;DHT22;10637;47.970;7.830;2023-10-09T13:52:46;31.50;86.30
20957;DHT22;10637;47.970;7.830;2023-10-09T13:57:48;30.80;85.30
20957;DHT22;10637;47.970;7.830;2023-10-09T14:02:49;30.30;87.70
20957;DHT22;10637;47.970;7.830;2023-10-09T14:07:53;30.10;88.10
20957;DHT22;10637;47.970;7.830;2023-10-09T14:13:01;30.30;87.50
20957;DHT22;10637;47.970;7.830;2023-10-09T14:18:14;30.30;87.80
20957;DHT22;10637;47.970;7.830;2023-10-09T14:23:16;30.00;86.10
20957;DHT22;10637;47.970;7.830;2023-10-09T14:28:22;29.50;87.30
20957;DHT22;10637;47.970;7.830;2023-10-09T14:33:29;29.00;86.90
20957;DHT22;10637;47.970;7.830;2023-10-09T14:38:38;28.60;87.80
20957;DHT22;10637;47.970;7.830;2023-10-09T14:43:40;28.60;88.90
20957;DHT22;10637;47.970;7.830;2023-10-09T14:48:43;28.50;89.20
20957;DHT22;10637;47.970;7.830;2023-10-09T14:53:48;28.30;89.40
20957;DHT22;10637;47.970;7.830;2023-10-09T14:58:51;28.10;88.30
20957;DHT22;10637;47.970;7.830;2023-10-09T15:03:53;27.90;90.10
20957;DHT22;10637;47.970;7.830;2023-10-09T15:08:57;27.80;90.10
20957;DHT22;10637;47.970;7.830;2023-10-09T15:14:00;27.60;90.50
20957;DHT22;10637;47.970;7.830;2023-10-09T15:19:02;27.50;90.90
20957;DHT22;10637;47.970;7.830;2023-10-09T15:24:04;27.40;91.60
20957;DHT22;10637;47.970;7.830;2023-10-09T15:29:06;27.30;93.30
20957;DHT22;10637;47.970;7.830;2023-10-09T15:34:08;27.30;94.80
20957;DHT22;10637;47.970;7.830;2023-10-09T15:39:10;27.10;93.80
20957;DHT22;10637;47.970;7.830;2023-10-09T15:44:13;26.90;95.60
20957;DHT22;10637;47.970;7.830;2023-10-09T15:49:15;26.40;96.00
20957;DHT22;10637;47.970;7.830;2023-10-09T15:54:17;26.10;98.20
20957;DHT22;10637;47.970;7.830;2023-10-09T15:59:21;25.80;99.90
20957;DHT22;10637;47.970;7.830;2023-10-09T16:04:23;25.40;99.70
20957;DHT22;10637;47.970;7.830;2023-10-09T16:09:26;25.20;99.90
20957;DHT22;10637;47.970;7.830;2023-10-09T16:14:27;25.00;99.90
20957;DHT22;10637;47.970;7.830;2023-10-09T16:19:29;24.80;99.90
20957;DHT22;10637;47.970;7.830;2023-10-09T16:24:34;24.40;99.90
20957;DHT22;10637;47.970;7.830;2023-10-09T16:29:40;24.30;99.90
20957;DHT22;10637;47.970;7.830;2023-10-09T16:34:49;23.60;99.90
20957;DHT22;10637;47.970;7.830;2023-10-09T16:39:52;23.40;99.90
20957;DHT22;10637;47.970;7.830;2023-10-09T16:44:55;23.10;99.90
20957;DHT22;10637;47.970;7.830;2023-10-09T16:49:57;22.70;99.90
20957;DHT22;10637;47.970;7.830;2023-10-09T16:54:59;22.50;99.90
20957;DHT22;10637;47.970;7.830;2023-10-09T17:00:05;22.40;99.90
20957;DHT22;10637;47.970;7.830;2023-10-09T17:05:13;22.00;99.90
20957;DHT22;10637;47.970;7.830;2023-10-09T17:10:15;21.80;99.90
20957;DHT22;10637;47.970;7.830;2023-10-09T17:15:17;21.50;99.90
20957;DHT22;10637;47.970;7.830;2023-10-09T17:20:19;21.40;99.90
20957;DHT22;10637;47.970;7.830;2023-10-09T17:25:23;21.70;99.90
20957;DHT22;10637;47.970;7.830;2023-10-09T17:30:25;21.90;99.90
20957;DHT22;10637;47.970;7.830;2023-10-09T17:35:28;21.90;99.90
20957;DHT22;10637;47.970;7.830;2023-10-09T17:40:32;21.90;99.90
20957;DHT22;10637;47.970;7.830;2023-10-09T17:45:37;21.70;99.90
20957;DHT22;10637;47.970;7.830;2023-10-09T17:50:45;21.40;99.90
20957;DHT22;10637;47.970;7.830;2023-10-09T17:55:52;21.30;99.90
20957;DHT22;10637;47.970;7.830;2023-10-09T18:00:54;21.10;99.90
20957;DHT22;10637;47.970;7.830;2023-10-09T18:06:00;20.90;99.90
20957;DHT22;10637;47.970;7.830;2023-10-09T18:11:02;20.80;99.90
20957;DHT22;10637;47.970;7.830;2023-10-09T18:16:10;20.70;99.90
20957;DHT22;10637;47.970;7.830;2023-10-09T18:21:18;20.70;99.90
20957;DHT22;10637;47.970;7.830;2023-10-09T18:26:23;20.60;99.90
20957;DHT22;10637;47.970;7.830;2023-10-09T18:31:25;20.60;99.90
20957;DHT22;10637;47.970;7.830;2023-10-09T18:36:28;20.80;99.90
20957;DHT22;10637;47.970;7.830;2023-10-09T18:41:31;20.50;99.90
20957;DHT22;10637;47.970;7.830;2023-10-09T18:46:34;20.30;99.90
20957;DHT22;10637;47.970;7.830;2023-10-09T18:51:36;20.00;99.90
20957;DHT22;10637;47.970;7.830;2023-10-09T18:56:38;19.90;99.90
20957;DHT22;10637;47.970;7.830;2023-10-09T19:01:40;19.80;99.90
20957;DHT22;10637;47.970;7.830;2023-10-09T19:06:42;19.90;99.90
20957;DHT22;10637;47.970;7.830;2023-10-09T19:11:43;19.80;99.90
20957;DHT22;10637;47.970;7.830;2023-10-09T19:16:45;19.70;99.90
20957;DHT22;10637;47.970;7.830;2023-10-09T19:21:50;19.90;99.90
20957;DHT22;10637;47.970;7.830;2023-10-09T19:26:54;20.00;99.90
20957;DHT22;10637;47.970;7.830;2023-10-09T19:31:57;19.90;99.90
20957;DHT22;10637;47.970;7.830;2023-10-09T19:36:59;19.70;99.90
20957;DHT22;10637;47.970;7.830;2023-10-09T19:42:01;19.30;99.90
20957;DHT22;10637;47.970;7.830;2023-10-09T19:47:03;19.20;99.90
20957;DHT22;10637;47.970;7.830;2023-10-09T19:52:07;19.40;99.90
20957;DHT22;10637;47.970;7.830;2023-10-09T19:57:09;19.40;99.90
20957;DHT22;10637;47.970;7.830;2023-10-09T20:02:10;19.40;99.90
20957;DHT22;10637;47.970;7.830;2023-10-09T20:07:18;19.30;99.90
20957;DHT22;10637;47.970;7.830;2023-10-09T20:12:20;19.40;99.90
20957;DHT22;10637;47.970;7.830;2023-10-09T20:17:22;19.40;99.90
20957;DHT22;10637;47.970;7.830;2023-10-09T20:22:24;19.50;99.90
20957;DHT22;10637;47.970;7.830;2023-10-09T20:27:26;19.60;99.90
20957;DHT22;10637;47.970;7.830;2023-10-09T20:32:32;19.70;99.90
20957;DHT22;10637;47.970;7.830;2023-10-09T20:37:33;19.90;99.90
20957;DHT22;10637;47.970;7.830;2023-10-09T20:42:36;20.00;99.90
20957;DHT22;10637;47.970;7.830;2023-10-09T20:47:45;19.70;99.90
20957;DHT22;10637;47.970;7.830;2023-10-09T20:52:48;19.30;99.90
20957;DHT22;10637;47.970;7.830;2023-10-09T20:57:57;19.10;99.90
20957;DHT22;10637;47.970;7.830;2023-10-09T21:02:59;18.70;99.90
20957;DHT22;10637;47.970;7.830;2023-10-09T21:08:01;18.50;99.90
20957;DHT22;10637;47.970;7.830;2023-10-09T21:13:03;18.40;99.90
20957;DHT22;10637;47.970;7.830;2023-10-09T21:18:04;18.40;99.90
20957;DHT22;10637;47.970;7.830;2023-10-09T21:23:11;18.80;99.90
20957;DHT22;10637;47.970;7.830;2023-10-09T21:28:13;19.00;99.90
20957;DHT22;10637;47.970;7.830;2023-10-09T21:33:15;18.80;99.90
20957;DHT22;10637;47.970;7.830;2023-10-09T21:38:17;18.90;99.90
20957;DHT22;10637;47.970;7.830;2023-10-09T21:43:18;19.00;99.90
20957;DHT22;10637;47.970;7.830;2023-10-09T21:48:20;18.90;99.90
20957;DHT22;10637;47.970;7.830;2023-10-09T21:53:22;19.00;99.90
20957;DHT22;10637;47.970;7.830;2023-10-09T21:58:24;19.00;99.90
20957;DHT22;10637;47.970;7.830;2023-10-09T22:03:26;18.80;99.90
20957;DHT22;10637;47.970;7.830;2023-10-09T22:08:29;18.40;99.90
20957;DHT22;10637;47.970;7.830;2023-10-09T22:13:30;18.30;99.90
20957;DHT22;10637;47.970;7.830;2023-10-09T22:18:33;18.20;99.90
20957;DHT22;10637;47.970;7.830;2023-10-09T22:23:41;17.90;99.90
20957;DHT22;10637;47.970;7.830;2023-10-09T22:28:54;17.80;99.90
20957;DHT22;10637;47.970;7.830;2023-10-09T22:33:58;17.60;99.90
20957;DHT22;10637;47.970;7.830;2023-10-09T22:39:16;17.70;99.90
20957;DHT22;10637;47.970;7.830;2023-10-09T22:44:34;17.60;99.90
20957;DHT22;10637;47.970;7.830;2023-10-09T22:49:37;17.40;99.90
20957;DHT22;10637;47.970;7.830;2023-10-09T22:54:42;17.40;99.90
20957;DHT22;10637;47.970;7.830;2023-10-09T22:59:47;17.20;99.90
20957;DHT22;10637;47.970;7.830;2023-10-09T23:04:52;17.00;99.90
20957;DHT22;10637;47.970;7.830;2023-10-09T23:09:58;17.30;99.90
20957;DHT22;10637;47.970;7.830;2023-10-09T23:15:17;17.10;99.90
20957;DHT22;10637;47.970;7.830;2023-10-09T23:20:38;17.10;99.90
20957;DHT22;10637;47.970;7.830;2023-10-09T23:25:52;17.00;99.90
20957;DHT22;10637;47.970;7.830;2023-10-09T23:30:57;17.40;99.90
20957;DHT22;10637;47.970;7.830;2023-10-09T23:35:58;17.00;99.90
20957;DHT22;10637;47.970;7.830;2023-10-09T23:41:06;17.10;99.90
20957;DHT22;10637;47.970;7.830;2023-10-09T23:46:12;17.30;99.90
20957;DHT22;10637;47.970;7.830;2023-10-09T23:51:19;17.30;99.90
20957;DHT22;10637;47.970;7.830;2023-10-09T23:56:21;17.00;99.90
